Time;durP1;ratioP1;P1;durP2;ratioP2;P2;SDS_P1;SDS_P2;PMS_P1;PMS_P2;Temp;Humidity;BMP_temperature;BMP_pressure;BME280_temperature;BME280_humidity;BME280_pressure;Samples;Min_cycle;Max_cycle;Signal;HPM_P1;HPM_P2
2023/03/22 00:01:22;;;;;;;7.88;4.65;;;11.30;99.90;;;;;;5073682;28;20024;-67
2023/03/22 00:03:49;;;;;;;8.13;4.40;;;11.30;99.90;;;;;;5073611;28;20052;-67
2023/03/22 00:06:15;;;;;;;6.78;4.68;;;11.20;99.90;;;;;;5073513;28;20075;-66
2023/03/22 00:08:41;;;;;;;7.10;4.45;;;11.20;99.90;;;;;;5073573;28;20025;-66
2023/03/22 00:11:07;;;;;;;8.80;4.47;;;11.20;99.90;;;;;;5073340;28;20392;-67
2023/03/22 00:13:34;;;;;;;6.68;4.47;;;11.10;99.90;;;;;;5073333;28;20028;-67
2023/03/22 00:16:01;;;;;;;9.23;4.15;;;11.10;99.90;;;;;;5073186;28;20099;-67
2023/03/22 00:18:27;;;;;;;7.18;4.55;;;11.10;99.90;;;;;;5073835;28;20103;-68
2023/03/22 00:20:54;;;;;;;6.67;3.87;;;11.20;99.90;;;;;;5073282;28;20492;-67
2023/03/22 00:23:21;;;;;;;7.95;3.80;;;11.10;99.90;;;;;;5073237;28;20036;-67
2023/03/22 00:25:47;;;;;;;6.13;3.67;;;11.20;99.90;;;;;;5072549;28;20599;-67
2023/03/22 00:28:14;;;;;;;6.63;3.75;;;11.10;99.90;;;;;;5073531;28;20130;-67
2023/03/22 00:30:40;;;;;;;7.70;4.00;;;11.10;99.90;;;;;;5073478;28;20028;-67
2023/03/22 00:33:06;;;;;;;7.00;3.63;;;11.20;99.90;;;;;;5072109;28;20024;-67
2023/03/22 00:35:32;;;;;;;8.70;3.93;;;11.30;99.90;;;;;;5071763;28;20485;-67
2023/03/22 00:38:05;;;;;;;10.20;3.47;;;11.20;99.90;;;;;;5071524;28;20358;-67
2023/03/22 00:40:33;;;;;;;14.02;3.83;;;11.20;99.90;;;;;;5071985;28;20408;-67
2023/03/22 00:42:59;;;;;;;7.90;3.50;;;11.10;99.90;;;;;;5071921;28;20473;-67
2023/03/22 00:45:25;;;;;;;6.20;3.70;;;11.10;99.90;;;;;;5073247;28;20051;-67
2023/03/22 00:47:51;;;;;;;7.55;3.63;;;11.00;99.90;;;;;;5072233;28;20031;-67
2023/03/22 00:50:16;;;;;;;6.70;3.37;;;11.00;99.90;;;;;;5071672;28;20032;-67
2023/03/22 00:52:42;;;;;;;7.03;3.40;;;10.90;99.90;;;;;;5072650;28;20047;-67
2023/03/22 00:55:08;;;;;;;8.33;3.50;;;10.90;99.90;;;;;;5073134;28;20029;-66
2023/03/22 00:57:33;;;;;;;6.30;3.20;;;10.90;99.90;;;;;;5073173;28;20086;-67
2023/03/22 01:00:06;;;;;;;7.20;3.33;;;11.00;99.90;;;;;;5073953;28;20447;-67
2023/03/22 01:02:32;;;;;;;7.90;3.53;;;11.00;99.90;;;;;;5075816;28;20387;-66
2023/03/22 01:04:58;;;;;;;7.10;4.13;;;11.00;99.90;;;;;;5077028;28;20052;-66
2023/03/22 01:07:23;;;;;;;4.23;3.00;;;11.00;99.90;;;;;;5076788;28;20060;-67
2023/03/22 01:09:50;;;;;;;6.67;3.30;;;10.90;99.90;;;;;;5076691;28;20044;-66
2023/03/22 01:12:17;;;;;;;5.43;3.22;;;11.00;99.90;;;;;;5076268;28;20027;-66
2023/03/22 01:14:43;;;;;;;7.40;3.35;;;11.10;99.90;;;;;;5077023;28;20033;-67
2023/03/22 01:17:09;;;;;;;4.15;2.85;;;11.00;99.90;;;;;;5077221;28;20379;-67
2023/03/22 01:19:36;;;;;;;7.53;3.50;;;11.00;99.90;;;;;;5077697;28;20028;-67
2023/03/22 01:22:04;;;;;;;7.63;3.30;;;11.00;99.90;;;;;;5077458;28;20025;-67
2023/03/22 01:24:30;;;;;;;5.72;3.30;;;10.90;99.90;;;;;;5076745;28;20056;-66
2023/03/22 01:26:56;;;;;;;4.40;3.30;;;11.00;99.90;;;;;;5080233;28;20017;-66
2023/03/22 01:29:22;;;;;;;7.03;3.67;;;10.90;99.90;;;;;;5079460;28;20508;-67
2023/03/22 01:31:48;;;;;;;6.82;3.60;;;10.90;99.90;;;;;;5078670;28;20036;-67
2023/03/22 01:34:13;;;;;;;5.80;3.43;;;10.90;99.90;;;;;;5081613;28;20108;-68
2023/03/22 01:36:39;;;;;;;7.50;3.23;;;10.90;99.90;;;;;;5076159;28;20509;-66
2023/03/22 01:39:05;;;;;;;4.83;3.30;;;10.70;99.90;;;;;;5076677;28;20024;-68
2023/03/22 01:41:33;;;;;;;6.20;3.15;;;10.70;99.90;;;;;;5078113;28;20262;-67
2023/03/22 01:44:15;;;;;;;4.28;3.00;;;10.70;99.90;;;;;;5075691;28;20032;-67
2023/03/22 01:46:43;;;;;;;9.30;3.33;;;10.60;99.90;;;;;;5075340;28;20083;-66
2023/03/22 01:49:21;;;;;;;8.25;3.30;;;10.80;99.90;;;;;;5074733;28;20431;-67
2023/03/22 01:51:50;;;;;;;6.25;3.45;;;10.80;99.90;;;;;;5076325;28;20028;-67
2023/03/22 01:54:39;;;;;;;6.50;3.33;;;10.80;99.90;;;;;;5074593;28;20024;-67
2023/03/22 01:57:05;;;;;;;6.68;2.92;;;10.70;99.90;;;;;;5073744;28;20035;-67
2023/03/22 01:59:31;;;;;;;5.85;2.90;;;10.50;99.90;;;;;;5075971;28;20470;-67
2023/03/22 02:02:01;;;;;;;5.75;2.90;;;10.60;99.90;;;;;;5075448;28;20035;-67
2023/03/22 02:04:33;;;;;;;5.38;3.10;;;10.60;99.90;;;;;;5075399;28;20024;-67
2023/03/22 02:07:01;;;;;;;5.63;3.15;;;10.60;99.90;;;;;;5075762;28;20354;-66
2023/03/22 02:09:28;;;;;;;5.95;3.10;;;10.50;99.90;;;;;;5074408;28;20067;-67
2023/03/22 02:12:21;;;;;;;4.35;2.75;;;10.50;99.90;;;;;;5074538;28;20020;-67
2023/03/22 02:15:08;;;;;;;4.30;2.83;;;10.50;99.90;;;;;;5075673;28;20512;-66
2023/03/22 02:18:24;;;;;;;4.82;3.00;;;10.40;99.90;;;;;;5075464;28;20025;-67
2023/03/22 02:20:54;;;;;;;5.78;3.30;;;10.30;99.90;;;;;;5036234;28;20061;-67
2023/03/22 02:23:40;;;;;;;4.60;3.03;;;10.30;99.90;;;;;;5036043;28;20573;-68
2023/03/22 02:26:45;;;;;;;6.18;2.90;;;10.20;99.90;;;;;;5053699;28;20029;-67
2023/03/22 02:29:48;;;;;;;6.75;3.72;;;10.20;99.90;;;;;;5052561;28;20446;-67
2023/03/22 02:32:44;;;;;;;3.78;2.70;;;10.30;99.90;;;;;;5053013;28;20131;-67
2023/03/22 02:35:40;;;;;;;3.78;2.90;;;10.30;99.90;;;;;;5053136;28;20083;-68
2023/03/22 02:38:42;;;;;;;5.45;3.20;;;10.40;99.90;;;;;;5053294;28;20140;-67
2023/03/22 02:41:20;;;;;;;5.90;3.10;;;10.30;99.90;;;;;;5052764;28;20123;-67
2023/03/22 02:44:04;;;;;;;6.93;3.10;;;10.30;99.90;;;;;;5052899;28;20029;-67
2023/03/22 02:46:53;;;;;;;4.50;3.05;;;10.40;99.90;;;;;;5052741;28;20028;-67
2023/03/22 02:49:28;;;;;;;5.57;3.20;;;10.40;99.90;;;;;;5053481;28;20401;-69
2023/03/22 02:52:22;;;;;;;6.57;2.97;;;10.50;99.90;;;;;;5052478;28;20371;-67
2023/03/22 02:55:09;;;;;;;5.47;3.03;;;10.50;99.90;;;;;;5053729;28;20120;-66
2023/03/22 02:57:55;;;;;;;6.40;3.13;;;10.50;99.90;;;;;;5060197;28;20048;-66
2023/03/22 03:00:20;;;;;;;5.10;2.55;;;10.60;99.90;;;;;;5073508;28;20028;-67
2023/03/22 03:02:52;;;;;;;3.77;2.67;;;10.80;99.90;;;;;;5074543;28;20499;-67
2023/03/22 03:05:20;;;;;;;6.68;2.70;;;10.80;99.90;;;;;;5074916;28;20025;-67
2023/03/22 03:07:51;;;;;;;6.95;2.63;;;10.80;99.90;;;;;;5074507;28;20067;-67
2023/03/22 03:10:19;;;;;;;4.97;2.72;;;10.90;99.90;;;;;;5074316;28;20036;-67
2023/03/22 03:12:45;;;;;;;10.68;2.55;;;10.90;99.90;;;;;;5074523;28;20480;-67
2023/03/22 03:15:15;;;;;;;4.63;2.10;;;10.90;99.90;;;;;;5074214;28;20046;-67
2023/03/22 03:18:25;;;;;;;4.35;2.70;;;11.00;99.90;;;;;;5074365;28;20021;-67
2023/03/22 03:21:03;;;;;;;4.40;2.50;;;11.00;99.90;;;;;;5074690;28;20025;-67
2023/03/22 03:23:40;;;;;;;4.50;2.47;;;11.00;99.90;;;;;;5073000;28;20024;-67
2023/03/22 03:26:37;;;;;;;4.68;2.38;;;10.90;99.90;;;;;;5074097;28;20389;-67
2023/03/22 03:29:19;;;;;;;4.18;3.08;;;10.90;99.90;;;;;;5073016;28;20484;-66
2023/03/22 03:32:08;;;;;;;4.32;2.53;;;10.80;99.90;;;;;;5074185;28;20426;-66
2023/03/22 03:34:56;;;;;;;6.60;2.50;;;10.70;99.90;;;;;;5074223;28;20070;-68
2023/03/22 03:37:35;;;;;;;5.97;2.75;;;10.70;99.90;;;;;;5073950;28;20017;-68
2023/03/22 03:40:17;;;;;;;5.90;2.60;;;10.60;99.90;;;;;;5073671;28;20476;-67
2023/03/22 03:42:48;;;;;;;6.00;2.83;;;10.60;99.90;;;;;;5072569;28;20119;-67
2023/03/22 03:45:16;;;;;;;3.90;2.65;;;10.50;99.90;;;;;;5074004;28;20362;-68
2023/03/22 03:47:45;;;;;;;4.05;2.20;;;10.60;99.90;;;;;;5072327;28;20400;-66
2023/03/22 03:50:15;;;;;;;5.05;2.40;;;10.60;99.90;;;;;;5073622;28;20082;-66
2023/03/22 03:52:41;;;;;;;6.13;2.60;;;10.60;99.90;;;;;;5073779;28;20438;-66
2023/03/22 03:55:07;;;;;;;5.60;2.72;;;10.60;99.90;;;;;;5073534;28;20175;-66
2023/03/22 03:57:33;;;;;;;;;;;10.60;99.90;;;;;;5074178;28;20115;-66
2023/03/22 03:59:58;;;;;;;3.35;2.25;;;10.50;99.90;;;;;;5073653;28;20351;-67
2023/03/22 04:02:24;;;;;;;6.87;2.70;;;10.50;99.90;;;;;;5073828;28;20099;-67
2023/03/22 04:04:50;;;;;;;4.73;2.50;;;10.30;99.90;;;;;;5073975;28;20032;-68
2023/03/22 04:07:15;;;;;;;4.07;2.50;;;10.30;99.90;;;;;;5073681;28;20361;-67
2023/03/22 04:09:41;;;;;;;5.37;2.73;;;10.20;99.90;;;;;;5073148;28;20416;-66
2023/03/22 04:12:08;;;;;;;5.77;2.80;;;10.20;99.90;;;;;;5073421;28;20405;-67
2023/03/22 04:14:34;;;;;;;5.03;2.58;;;10.10;99.90;;;;;;5073124;28;20035;-67
2023/03/22 04:17:00;;;;;;;5.43;2.97;;;10.10;99.90;;;;;;5073194;28;20385;-67
2023/03/22 04:19:26;;;;;;;3.45;2.08;;;10.10;99.90;;;;;;5073432;28;20025;-67
2023/03/22 04:21:52;;;;;;;6.32;3.00;;;10.00;99.90;;;;;;5073473;28;20032;-67
2023/03/22 04:24:19;;;;;;;5.25;2.22;;;9.90;99.90;;;;;;5073421;28;20119;-67
2023/03/22 04:26:44;;;;;;;4.63;2.20;;;9.80;99.90;;;;;;5073723;28;20024;-67
2023/03/22 04:29:10;;;;;;;5.37;2.57;;;9.80;99.90;;;;;;5073033;28;20032;-67
2023/03/22 04:31:36;;;;;;;6.83;2.83;;;9.90;99.90;;;;;;5073405;28;20036;-68
2023/03/22 04:34:04;;;;;;;4.93;2.92;;;9.90;99.90;;;;;;5088465;28;20024;-67
2023/03/22 04:36:35;;;;;;;6.03;2.67;;;9.90;99.90;;;;;;5073038;28;20546;-68
2023/03/22 04:39:03;;;;;;;5.43;2.53;;;10.00;99.90;;;;;;5088698;28;20033;-67
2023/03/22 04:41:29;;;;;;;4.13;2.65;;;9.90;99.90;;;;;;5072899;28;20481;-66
2023/03/22 04:43:56;;;;;;;4.83;3.17;;;9.90;99.90;;;;;;5073180;28;20032;-67
2023/03/22 04:46:22;;;;;;;4.90;2.60;;;9.80;99.90;;;;;;5073127;28;20020;-67
2023/03/22 04:48:48;;;;;;;4.40;2.65;;;9.70;99.90;;;;;;5073223;28;20016;-68
2023/03/22 04:51:14;;;;;;;5.18;2.78;;;9.60;99.90;;;;;;5072824;28;20025;-67
2023/03/22 04:53:40;;;;;;;4.35;2.90;;;9.70;99.90;;;;;;5072950;28;20108;-67
2023/03/22 04:56:08;;;;;;;6.50;3.17;;;9.70;99.90;;;;;;5072681;28;20025;-67
2023/03/22 04:58:35;;;;;;;3.38;2.50;;;9.70;99.90;;;;;;5088527;28;20029;-66
2023/03/22 05:01:02;;;;;;;4.30;2.90;;;9.70;99.90;;;;;;5073226;28;20079;-67
2023/03/22 05:03:27;;;;;;;;;;;9.60;99.90;;;;;;5073588;28;20043;-67
2023/03/22 05:05:55;;;;;;;5.13;2.33;;;9.60;99.90;;;;;;5072990;28;19908;-68
2023/03/22 05:08:26;;;;;;;5.05;2.80;;;9.60;99.90;;;;;;5071549;28;20025;-66
2023/03/22 05:10:53;;;;;;;4.55;2.80;;;9.50;99.90;;;;;;5072587;28;20462;-67
2023/03/22 05:13:20;;;;;;;4.53;2.28;;;9.50;99.90;;;;;;5072656;28;20120;-67
2023/03/22 05:15:47;;;;;;;6.22;3.97;;;9.40;99.90;;;;;;5092636;22;20393;-65
2023/03/22 05:18:14;;;;;;;5.10;2.85;;;9.40;99.90;;;;;;5059619;28;20023;-66
2023/03/22 05:20:40;;;;;;;;;;;9.50;99.90;;;;;;5087358;28;20396;-65
2023/03/22 05:23:06;;;;;;;4.32;2.50;;;9.50;99.90;;;;;;5071187;28;19904;-67
2023/03/22 05:25:32;;;;;;;4.45;2.42;;;9.40;99.90;;;;;;5070667;28;20078;-69
2023/03/22 05:28:00;;;;;;;4.05;2.85;;;9.50;99.90;;;;;;5070815;28;20048;-68
2023/03/22 05:30:29;;;;;;;4.72;2.90;;;9.50;99.90;;;;;;5069472;28;20035;-67
2023/03/22 05:33:01;;;;;;;8.13;3.38;;;9.50;99.90;;;;;;5071191;28;20023;-66
2023/03/22 05:35:28;;;;;;;5.65;2.70;;;9.50;99.90;;;;;;5073151;28;20095;-66
2023/03/22 05:37:54;;;;;;;4.50;2.60;;;9.60;99.90;;;;;;5072797;28;20029;-66
2023/03/22 05:40:19;;;;;;;5.20;2.60;;;9.40;99.90;;;;;;5072344;28;20024;-66
2023/03/22 05:42:45;;;;;;;5.77;2.53;;;9.50;99.90;;;;;;5072558;28;20100;-66
2023/03/22 05:45:11;;;;;;;6.17;3.10;;;9.50;99.90;;;;;;5072622;28;20381;-66
2023/03/22 05:47:38;;;;;;;6.00;3.00;;;9.50;99.90;;;;;;5080010;28;20056;-67
2023/03/22 05:50:05;;;;;;;4.18;2.70;;;9.50;99.90;;;;;;5076675;28;20025;-67
2023/03/22 05:52:31;;;;;;;9.70;3.00;;;9.50;99.90;;;;;;5076296;28;20013;-67
2023/03/22 05:54:57;;;;;;;5.13;2.97;;;9.50;99.90;;;;;;5075049;28;20017;-66
2023/03/22 05:57:22;;;;;;;6.57;2.90;;;9.40;99.90;;;;;;5075631;28;20025;-67
2023/03/22 05:59:48;;;;;;;7.77;2.80;;;9.40;99.90;;;;;;5076447;28;20142;-67
2023/03/22 06:02:13;;;;;;;5.17;3.00;;;9.40;99.90;;;;;;5075151;28;20158;-68
2023/03/22 06:04:40;;;;;;;7.00;3.17;;;9.40;99.90;;;;;;5075742;28;20051;-69
2023/03/22 06:07:06;;;;;;;5.45;3.20;;;9.50;99.90;;;;;;5076174;28;20037;-70
2023/03/22 06:09:32;;;;;;;6.53;3.72;;;9.50;99.90;;;;;;5076271;28;20469;-69
2023/03/22 06:11:58;;;;;;;7.45;3.30;;;9.50;99.90;;;;;;5074357;28;20028;-69
2023/03/22 06:14:23;;;;;;;6.30;3.72;;;9.50;99.90;;;;;;5077924;28;20096;-68
2023/03/22 06:16:49;;;;;;;6.28;3.05;;;9.50;99.90;;;;;;5082850;28;20036;-67
2023/03/22 06:19:15;;;;;;;6.10;2.93;;;9.50;99.90;;;;;;5077402;28;20017;-67
2023/03/22 06:21:41;;;;;;;6.50;3.27;;;9.50;99.90;;;;;;5061553;28;20105;-68
2023/03/22 06:24:06;;;;;;;8.18;3.30;;;9.60;99.90;;;;;;5053034;28;20036;-68
2023/03/22 06:26:32;;;;;;;6.07;3.23;;;9.50;99.90;;;;;;5058772;28;20029;-68
2023/03/22 06:28:57;;;;;;;8.27;3.60;;;9.60;99.90;;;;;;5053821;28;20025;-68
2023/03/22 06:31:23;;;;;;;6.77;3.70;;;9.70;99.90;;;;;;5055636;28;20154;-68
2023/03/22 06:33:49;;;;;;;5.77;3.73;;;9.70;99.90;;;;;;5069979;28;20029;-67
2023/03/22 06:36:14;;;;;;;5.90;3.80;;;9.70;99.90;;;;;;5055077;28;20033;-69
2023/03/22 06:38:40;;;;;;;5.47;3.50;;;9.60;99.90;;;;;;5055236;28;20032;-68
2023/03/22 06:41:05;;;;;;;6.60;3.80;;;9.60;99.90;;;;;;5058452;28;20035;-68
2023/03/22 06:43:31;;;;;;;6.50;3.27;;;9.60;99.90;;;;;;5054777;28;20063;-69
2023/03/22 06:45:56;;;;;;;7.60;3.50;;;9.70;99.90;;;;;;5053782;28;20600;-68
2023/03/22 06:48:22;;;;;;;10.00;3.77;;;9.90;99.90;;;;;;5053644;28;20132;-68
2023/03/22 06:50:48;;;;;;;5.93;4.13;;;9.90;99.90;;;;;;5054712;28;20404;-68
2023/03/22 06:53:13;;;;;;;4.70;3.17;;;10.00;99.90;;;;;;5051234;28;20401;-68
2023/03/22 06:55:39;;;;;;;7.00;3.50;;;10.00;99.90;;;;;;5051131;28;20025;-68
2023/03/22 06:58:05;;;;;;;8.47;4.97;;;10.00;99.90;;;;;;5053617;28;20017;-68
2023/03/22 07:00:31;;;;;;;8.30;3.55;;;10.10;99.90;;;;;;5053244;28;20032;-68
2023/03/22 07:02:59;;;;;;;6.78;3.42;;;10.10;99.90;;;;;;5054866;28;20036;-70
2023/03/22 07:05:25;;;;;;;11.00;4.00;;;10.10;99.90;;;;;;5054780;28;20052;-69
2023/03/22 07:07:51;;;;;;;8.50;4.03;;;10.20;99.90;;;;;;5054864;28;20473;-69
2023/03/22 07:10:16;;;;;;;6.23;3.37;;;10.30;99.90;;;;;;5054488;28;20370;-69
2023/03/22 07:12:42;;;;;;;6.60;3.60;;;10.30;99.90;;;;;;5052811;28;20473;-69
2023/03/22 07:15:08;;;;;;;7.07;4.33;;;10.50;99.90;;;;;;5052918;28;20025;-69
2023/03/22 07:17:34;;;;;;;6.28;3.90;;;10.60;99.90;;;;;;5055972;28;20191;-68
2023/03/22 07:20:00;;;;;;;7.25;3.63;;;10.90;99.90;;;;;;5053396;28;20111;-69
2023/03/22 07:22:26;;;;;;;6.13;3.42;;;11.10;99.90;;;;;;5052781;28;20025;-67
2023/03/22 07:24:51;;;;;;;4.63;3.00;;;11.20;99.90;;;;;;5053810;28;20056;-69
2023/03/22 07:27:18;;;;;;;8.87;3.23;;;11.30;99.90;;;;;;5037058;28;20414;-68
2023/03/22 07:29:44;;;;;;;;;;;11.40;99.90;;;;;;5038121;28;20478;-70
2023/03/22 07:32:10;;;;;;;5.20;3.28;;;11.50;99.90;;;;;;5045689;28;19951;-69
2023/03/22 07:34:36;;;;;;;5.32;2.63;;;11.60;99.90;;;;;;5045594;28;20082;-69
2023/03/22 07:37:02;;;;;;;6.50;3.00;;;11.70;99.90;;;;;;5061884;28;20110;-68
2023/03/22 07:39:28;;;;;;;7.07;3.20;;;11.80;99.90;;;;;;5042507;28;20017;-69
2023/03/22 07:41:54;;;;;;;7.07;3.08;;;11.70;99.90;;;;;;5043714;28;20029;-68
2023/03/22 07:44:21;;;;;;;7.57;2.90;;;11.70;99.90;;;;;;5046046;28;20036;-69
2023/03/22 07:46:47;;;;;;;;;;;11.90;99.90;;;;;;5069280;28;20029;-69
2023/03/22 07:49:13;;;;;;;6.63;2.70;;;12.00;99.90;;;;;;5053550;28;19912;-69
2023/03/22 07:51:39;;;;;;;8.90;3.30;;;12.00;99.90;;;;;;5053244;28;20017;-67
2023/03/22 07:54:05;;;;;;;5.50;2.90;;;12.10;99.90;;;;;;5053870;28;20028;-68
2023/03/22 07:56:31;;;;;;;;;;;12.10;99.90;;;;;;5067350;28;20025;-68
2023/03/22 07:58:57;;;;;;;4.75;2.85;;;12.30;99.90;;;;;;5072038;28;20280;-69
2023/03/22 08:01:23;;;;;;;4.53;2.40;;;12.50;99.90;;;;;;5071990;28;20099;-68
2023/03/22 08:03:49;;;;;;;6.13;2.38;;;12.50;99.90;;;;;;5073600;28;20254;-68
2023/03/22 08:06:15;;;;;;;8.77;2.63;;;12.80;99.90;;;;;;5072226;28;20025;-69
2023/03/22 08:08:40;;;;;;;5.63;2.80;;;12.90;99.90;;;;;;5071168;28;20192;-68
2023/03/22 08:11:07;;;;;;;5.63;2.33;;;13.10;99.90;;;;;;5072988;28;20035;-68
2023/03/22 08:13:33;;;;;;;4.97;1.98;;;13.30;99.90;;;;;;5073421;28;20455;-68
2023/03/22 08:15:59;;;;;;;5.53;2.25;;;13.30;99.90;;;;;;5073581;28;20126;-68
2023/03/22 08:18:25;;;;;;;7.18;2.20;;;13.50;99.90;;;;;;5072459;28;20024;-68
2023/03/22 08:20:55;;;;;;;8.90;2.00;;;13.60;99.90;;;;;;5074770;28;20043;-69
2023/03/22 08:23:22;;;;;;;4.05;2.20;;;13.80;99.90;;;;;;5073818;28;20066;-68
2023/03/22 08:25:48;;;;;;;4.93;1.73;;;13.90;99.90;;;;;;5071294;28;20079;-68
2023/03/22 08:28:14;;;;;;;4.35;2.33;;;14.00;99.90;;;;;;5073461;28;20180;-68
2023/03/22 08:30:41;;;;;;;6.43;1.80;;;14.10;99.90;;;;;;5073216;28;20419;-69
2023/03/22 08:33:07;;;;;;;6.32;1.73;;;14.20;99.90;;;;;;5073327;28;20028;-69
2023/03/22 08:35:33;;;;;;;6.88;1.90;;;14.20;99.90;;;;;;5073567;28;20477;-69
2023/03/22 08:38:00;;;;;;;7.38;1.73;;;14.40;99.90;;;;;;5072742;28;20430;-69
2023/03/22 08:40:25;;;;;;;3.65;1.58;;;14.50;99.90;;;;;;5052363;28;20029;-69
2023/03/22 08:42:51;;;;;;;3.38;1.70;;;14.70;99.90;;;;;;5053285;28;20334;-73
2023/03/22 08:45:17;;;;;;;3.08;1.17;;;14.80;99.90;;;;;;5053808;28;20502;-73
2023/03/22 08:47:43;;;;;;;6.43;2.77;;;15.00;99.90;;;;;;5051944;28;20037;-72
2023/03/22 08:50:10;;;;;;;4.53;1.58;;;15.20;99.90;;;;;;5054360;28;20274;-73
2023/03/22 08:52:36;;;;;;;5.22;1.65;;;15.60;99.90;;;;;;5053185;28;20021;-73
2023/03/22 08:55:05;;;;;;;8.73;1.98;;;15.80;99.90;;;;;;5051860;28;20051;-73
2023/03/22 08:57:31;;;;;;;4.50;1.67;;;16.20;99.90;;;;;;5051539;28;20029;-72
2023/03/22 08:59:57;;;;;;;2.47;1.13;;;16.60;99.90;;;;;;5053477;28;20024;-73
2023/03/22 09:02:23;;;;;;;6.50;2.20;;;16.80;99.40;;;;;;5055574;28;20079;-73
2023/03/22 09:04:49;;;;;;;4.00;1.75;;;17.30;98.80;;;;;;5053604;28;20683;-68
2023/03/22 09:07:16;;;;;;;5.85;3.17;;;17.40;98.00;;;;;;5051542;28;20021;-68
2023/03/22 09:09:42;;;;;;;8.38;3.70;;;17.80;99.90;;;;;;5052960;28;20017;-71
2023/03/22 09:12:08;;;;;;;2.50;1.30;;;19.10;99.90;;;;;;5052884;28;20033;-69
2023/03/22 09:14:33;;;;;;;3.17;1.20;;;21.80;92.90;;;;;;5052738;28;20047;-68
2023/03/22 09:17:00;;;;;;;3.90;1.30;;;24.10;86.10;;;;;;5052946;28;20115;-68
2023/03/22 09:19:26;;;;;;;2.53;1.38;;;25.20;79.00;;;;;;5054427;28;20041;-69
2023/03/22 09:21:51;;;;;;;3.53;1.10;;;25.40;76.00;;;;;;5057748;28;20102;-68
2023/03/22 09:24:17;;;;;;;2.22;1.13;;;23.90;75.40;;;;;;5057737;28;20037;-69
2023/03/22 09:26:43;;;;;;;2.28;1.15;;;22.20;79.50;;;;;;5058016;28;20025;-69
2023/03/22 09:29:09;;;;;;;3.13;1.00;;;21.60;80.70;;;;;;5057925;28;20021;-69
2023/03/22 09:31:35;;;;;;;;;;;23.30;79.00;;;;;;5058348;28;20029;-69
2023/03/22 09:34:00;;;;;;;3.30;1.20;;;25.30;74.60;;;;;;5060775;28;20000;-69
2023/03/22 09:36:26;;;;;;;;;;;25.30;73.10;;;;;;5066458;28;20025;-69
2023/03/22 09:38:51;;;;;;;4.32;1.08;;;26.80;71.10;;;;;;5074007;28;19904;-68
2023/03/22 09:41:21;;;;;;;;;;;27.70;68.60;;;;;;5056139;28;20048;-69
2023/03/22 09:44:08;;;;;;;2.30;0.90;;;27.20;66.50;;;;;;5072021;28;19983;-68
2023/03/22 09:46:41;;;;;;;3.47;1.00;;;26.90;66.90;;;;;;5056316;28;20481;-66
2023/03/22 09:49:15;;;;;;;3.20;1.10;;;27.90;65.30;;;;;;5056499;28;20060;-64
2023/03/22 09:51:42;;;;;;;2.30;1.10;;;27.60;65.80;;;;;;5054896;28;20116;-66
2023/03/22 09:54:32;;;;;;;1.67;0.98;;;28.80;64.30;;;;;;5056583;28;20473;-68
2023/03/22 09:57:16;;;;;;;2.20;1.15;;;30.00;62.20;;;;;;5055584;28;20029;-66
2023/03/22 09:59:55;;;;;;;1.95;0.70;;;28.20;61.80;;;;;;5055971;28;20025;-69
2023/03/22 10:02:48;;;;;;;2.55;1.10;;;28.30;62.60;;;;;;5056265;28;20059;-69
2023/03/22 10:05:26;;;;;;;2.30;0.93;;;28.40;62.70;;;;;;5056692;28;20464;-71
2023/03/22 10:08:32;;;;;;;4.68;1.40;;;29.20;61.50;;;;;;5056371;28;20023;-68
2023/03/22 10:11:00;;;;;;;3.97;1.13;;;30.00;59.70;;;;;;5054144;28;20112;-71
2023/03/22 10:13:40;;;;;;;2.03;0.98;;;30.10;59.30;;;;;;5055740;28;20075;-70
2023/03/22 10:16:11;;;;;;;1.38;0.80;;;29.70;58.90;;;;;;5055521;28;20031;-71
2023/03/22 10:18:50;;;;;;;3.53;0.90;;;28.40;59.80;;;;;;5055216;28;20025;-70
2023/03/22 10:21:17;;;;;;;2.47;0.73;;;28.80;59.40;;;;;;5055683;28;20028;-71
2023/03/22 10:24:01;;;;;;;4.47;1.30;;;29.50;58.70;;;;;;5055156;28;20071;-71
2023/03/22 10:26:32;;;;;;;2.33;1.60;;;30.20;60.50;;;;;;5054991;28;20393;-71
2023/03/22 10:29:00;;;;;;;2.75;1.10;;;30.80;58.00;;;;;;5055489;28;20120;-71
2023/03/22 10:31:26;;;;;;;2.17;0.80;;;30.20;57.10;;;;;;5051962;28;20017;-70
2023/03/22 10:34:04;;;;;;;2.53;0.82;;;30.20;56.90;;;;;;5053737;28;20029;-70
2023/03/22 10:36:33;;;;;;;1.75;0.80;;;29.90;57.40;;;;;;5052221;28;20044;-69
2023/03/22 10:39:16;;;;;;;2.67;0.80;;;27.60;58.90;;;;;;5035703;28;20028;-70
2023/03/22 10:41:42;;;;;;;2.00;0.75;;;26.40;61.10;;;;;;5035126;28;20107;-69
2023/03/22 10:44:14;;;;;;;2.33;0.88;;;26.30;61.10;;;;;;5035249;28;20022;-68
2023/03/22 10:46:41;;;;;;;3.10;0.80;;;25.50;61.90;;;;;;5036445;28;20119;-69
2023/03/22 10:49:17;;;;;;;1.98;0.95;;;25.30;63.30;;;;;;5036124;28;20028;-69
2023/03/22 10:51:48;;;;;;;2.85;0.95;;;25.90;62.10;;;;;;5035301;28;20018;-70
2023/03/22 10:54:15;;;;;;;2.58;1.00;;;27.20;61.10;;;;;;5037607;28;20033;-69
2023/03/22 10:56:41;;;;;;;1.65;0.85;;;28.10;60.10;;;;;;5035372;28;20026;-70
2023/03/22 10:59:07;;;;;;;;;;;28.30;59.40;;;;;;5057389;28;20024;-69
2023/03/22 11:01:38;;;;;;;1.23;0.70;;;28.60;59.20;;;;;;5070270;28;20335;-69
2023/03/22 11:04:15;;;;;;;1.83;0.95;;;28.30;59.00;;;;;;5055604;28;20029;-70
2023/03/22 11:06:52;;;;;;;2.08;0.98;;;27.80;58.90;;;;;;5056228;28;20033;-70
2023/03/22 11:09:20;;;;;;;3.75;1.27;;;27.90;59.20;;;;;;5056733;28;20458;-70
2023/03/22 11:11:52;;;;;;;5.63;1.90;;;28.30;59.20;;;;;;5071116;28;20025;-69
2023/03/22 11:14:32;;;;;;;3.00;1.13;;;27.70;58.90;;;;;;5056796;28;20359;-69
2023/03/22 11:17:12;;;;;;;3.97;1.10;;;25.70;60.50;;;;;;5059224;28;20025;-72
2023/03/22 11:19:41;;;;;;;2.97;1.13;;;24.20;63.40;;;;;;5056570;28;20025;-71
2023/03/22 11:22:39;;;;;;;3.08;1.05;;;23.10;66.60;;;;;;5053435;28;20025;-71
2023/03/22 11:25:13;;;;;;;;;;;22.00;68.10;;;;;;5055186;28;20032;-71
2023/03/22 11:27:50;;;;;;;2.85;0.95;;;21.30;68.90;;;;;;5054276;28;19947;-71
2023/03/22 11:30:21;;;;;;;1.38;0.90;;;20.70;71.00;;;;;;5054506;28;20039;-69
2023/03/22 11:32:47;;;;;;;2.88;1.00;;;20.40;72.20;;;;;;5055497;28;20029;-71
2023/03/22 11:35:20;;;;;;;2.92;1.00;;;20.20;73.40;;;;;;5056343;28;20025;-72
2023/03/22 11:37:51;;;;;;;3.38;1.00;;;19.70;73.10;;;;;;5055216;28;20025;-71
2023/03/22 11:40:21;;;;;;;6.80;3.42;;;19.50;73.80;;;;;;5054685;28;20103;-70
2023/03/22 11:42:52;;;;;;;2.25;1.05;;;19.40;74.70;;;;;;5054312;28;20041;-71
2023/03/22 11:45:26;;;;;;;2.95;1.10;;;19.40;74.40;;;;;;5054426;28;20369;-71
2023/03/22 11:47:53;;;;;;;1.80;0.90;;;19.40;74.40;;;;;;5052984;28;20152;-70
2023/03/22 11:50:28;;;;;;;1.58;0.80;;;19.40;74.70;;;;;;5054188;28;20041;-72
2023/03/22 11:52:55;;;;;;;3.65;1.08;;;19.40;75.20;;;;;;5054068;28;20039;-71
2023/03/22 11:55:22;;;;;;;2.80;0.80;;;19.40;75.60;;;;;;5053763;28;20020;-71
2023/03/22 11:57:49;;;;;;;;;;;19.40;74.80;;;;;;5054064;28;20017;-72
2023/03/22 12:00:22;;;;;;;3.13;0.93;;;19.20;74.50;;;;;;5053689;28;19916;-71
2023/03/22 12:02:52;;;;;;;4.18;0.95;;;19.00;75.30;;;;;;5069294;28;20144;-70
2023/03/22 12:05:26;;;;;;;3.75;1.30;;;19.10;75.00;;;;;;5053827;28;20500;-71
2023/03/22 12:08:21;;;;;;;2.70;1.27;;;19.10;74.80;;;;;;5053827;28;20075;-71
2023/03/22 12:10:56;;;;;;;2.65;1.00;;;19.30;75.00;;;;;;5050394;28;20044;-71
2023/03/22 12:13:30;;;;;;;2.72;1.33;;;19.30;74.80;;;;;;5060141;28;20025;-71
2023/03/22 12:16:01;;;;;;;2.88;1.33;;;19.20;76.80;;;;;;5054666;28;20131;-72
2023/03/22 12:18:35;;;;;;;2.60;1.05;;;19.40;75.00;;;;;;5053778;28;20024;-72
2023/03/22 12:21:01;;;;;;;2.35;1.10;;;19.70;74.10;;;;;;5054522;28;20104;-72
2023/03/22 12:23:35;;;;;;;3.95;1.50;;;19.80;73.90;;;;;;5052678;28;20110;-72
2023/03/22 12:26:25;;;;;;;2.63;1.02;;;20.00;73.90;;;;;;5053260;28;20037;-74
2023/03/22 12:28:59;;;;;;;5.35;2.78;;;20.20;73.60;;;;;;5052718;28;20052;-71
2023/03/22 12:31:34;;;;;;;4.88;1.00;;;20.20;75.00;;;;;;5054693;28;20029;-71
2023/03/22 12:34:04;;;;;;;4.00;0.93;;;20.20;73.20;;;;;;5053716;28;20021;-71
2023/03/22 12:36:40;;;;;;;2.85;1.23;;;19.90;72.70;;;;;;5052416;28;20024;-72
2023/03/22 12:39:11;;;;;;;2.30;1.00;;;19.40;74.00;;;;;;5053871;28;20557;-72
2023/03/22 12:41:45;;;;;;;1.55;0.90;;;19.00;75.00;;;;;;5053557;28;20398;-71
2023/03/22 12:44:42;;;;;;;4.15;1.00;;;19.10;75.50;;;;;;5053366;28;20021;-71
2023/03/22 12:47:40;;;;;;;3.00;1.20;;;19.20;75.50;;;;;;4996477;28;20497;-71
2023/03/22 12:50:19;;;;;;;2.83;1.02;;;19.30;75.40;;;;;;5012648;28;20441;-71
2023/03/22 12:52:50;;;;;;;2.60;1.38;;;19.40;75.20;;;;;;5012240;28;20505;-71
2023/03/22 12:55:28;;;;;;;4.90;1.25;;;19.50;75.30;;;;;;5014047;28;20081;-72
2023/03/22 12:57:55;;;;;;;3.03;1.40;;;19.60;75.00;;;;;;5015786;28;20041;-71
2023/03/22 13:00:33;;;;;;;2.53;1.35;;;19.60;74.80;;;;;;5015355;28;20104;-68
2023/03/22 13:03:05;;;;;;;2.25;1.15;;;19.70;75.70;;;;;;4993134;28;20402;-75
2023/03/22 13:05:33;;;;;;;2.30;1.10;;;19.70;74.60;;;;;;5014758;28;20497;-75
2023/03/22 13:08:02;;;;;;;2.67;1.65;;;19.60;75.00;;;;;;5016100;28;20026;-74
2023/03/22 13:10:31;;;;;;;3.75;1.40;;;19.60;75.20;;;;;;4998934;28;20041;-71